sensor_id;sensor_type;location;lat;lon;timestamp;pressure;altitude;pressure_sealevel;temperature;humidity
51781;BME280;37844;57.126;24.288;2023-01-29T00:02:22;101522.31;;;-1.33;100.00
51781;BME280;37844;57.126;24.288;2023-01-29T00:04:47;101523.06;;;-1.34;100.00
51781;BME280;37844;57.126;24.288;2023-01-29T00:07:13;101522.41;;;-1.31;100.00
51781;BME280;37844;57.126;24.288;2023-01-29T00:09:39;101514.41;;;-1.25;100.00
51781;BME280;37844;57.126;24.288;2023-01-29T00:12:05;101518.22;;;-1.31;100.00
51781;BME280;37844;57.126;24.288;2023-01-29T00:14:33;101510.53;;;-1.32;100.00
51781;BME280;37844;57.126;24.288;2023-01-29T00:16:59;101494.03;;;-1.39;100.00
51781;BME280;37844;57.126;24.288;2023-01-29T00:19:24;101506.69;;;-1.39;100.00
51781;BME280;37844;57.126;24.288;2023-01-29T00:21:50;101507.56;;;-1.38;100.00
51781;BME280;37844;57.126;24.288;2023-01-29T00:24:15;101508.75;;;-1.33;100.00
51781;BME280;37844;57.126;24.288;2023-01-29T00:26:41;101502.44;;;-1.28;100.00
51781;BME280;37844;57.126;24.288;2023-01-29T00:29:07;101495.03;;;-1.25;100.00
51781;BME280;37844;57.126;24.288;2023-01-29T00:31:32;101488.44;;;-1.35;100.00
51781;BME280;37844;57.126;24.288;2023-01-29T00:33:58;101495.91;;;-1.24;100.00
51781;BME280;37844;57.126;24.288;2023-01-29T00:36:24;101496.25;;;-1.20;100.00
51781;BME280;37844;57.126;24.288;2023-01-29T00:38:57;101485.25;;;-1.20;100.00
51781;BME280;37844;57.126;24.288;2023-01-29T00:41:29;101482.94;;;-1.17;100.00
51781;BME280;37844;57.126;24.288;2023-01-29T00:44:13;101475.91;;;-1.21;100.00
51781;BME280;37844;57.126;24.288;2023-01-29T00:46:58;101481.41;;;-1.27;100.00
51781;BME280;37844;57.126;24.288;2023-01-29T00:49:23;101478.75;;;-1.17;100.00
51781;BME280;37844;57.126;24.288;2023-01-29T00:51:49;101471.50;;;-1.12;100.00
51781;BME280;37844;57.126;24.288;2023-01-29T00:54:40;101467.97;;;-1.14;100.00
51781;BME280;37844;57.126;24.288;2023-01-29T00:57:06;101469.41;;;-1.06;100.00
51781;BME280;37844;57.126;24.288;2023-01-29T00:59:31;101467.66;;;-1.07;100.00
51781;BME280;37844;57.126;24.288;2023-01-29T01:01:57;101465.13;;;-1.07;100.00
51781;BME280;37844;57.126;24.288;2023-01-29T01:04:41;101417.53;;;-1.36;100.00
51781;BME280;37844;57.126;24.288;2023-01-29T01:07:06;101456.31;;;-1.24;100.00
51781;BME280;37844;57.126;24.288;2023-01-29T01:09:35;101465.03;;;-1.20;100.00
51781;BME280;37844;57.126;24.288;2023-01-29T01:12:20;101461.06;;;-1.17;100.00
51781;BME280;37844;57.126;24.288;2023-01-29T01:14:46;101458.84;;;-1.24;100.00
51781;BME280;37844;57.126;24.288;2023-01-29T01:17:12;101464.91;;;-1.22;100.00
51781;BME280;37844;57.126;24.288;2023-01-29T01:19:37;101457.66;;;-1.29;100.00
51781;BME280;37844;57.126;24.288;2023-01-29T01:22:02;101431.50;;;-1.30;100.00
51781;BME280;37844;57.126;24.288;2023-01-29T01:24:29;101449.41;;;-1.15;100.00
51781;BME280;37844;57.126;24.288;2023-01-29T01:26:54;101443.69;;;-1.24;100.00
51781;BME280;37844;57.126;24.288;2023-01-29T01:29:20;101436.34;;;-1.21;100.00
51781;BME280;37844;57.126;24.288;2023-01-29T01:31:46;101444.88;;;-1.19;100.00
51781;BME280;37844;57.126;24.288;2023-01-29T01:34:11;101439.28;;;-1.15;100.00
51781;BME280;37844;57.126;24.288;2023-01-29T01:36:36;101435.44;;;-1.21;100.00
51781;BME280;37844;57.126;24.288;2023-01-29T01:39:02;101441.81;;;-1.15;100.00
51781;BME280;37844;57.126;24.288;2023-01-29T01:41:28;101434.13;;;-1.16;100.00
51781;BME280;37844;57.126;24.288;2023-01-29T01:44:00;101435.34;;;-1.11;100.00
51781;BME280;37844;57.126;24.288;2023-01-29T01:46:36;101432.03;;;-1.10;100.00
51781;BME280;37844;57.126;24.288;2023-01-29T01:49:14;101443.78;;;-1.11;100.00
51781;BME280;37844;57.126;24.288;2023-01-29T01:51:47;101434.66;;;-1.09;100.00
51781;BME280;37844;57.126;24.288;2023-01-29T01:54:22;101441.91;;;-1.01;100.00
51781;BME280;37844;57.126;24.288;2023-01-29T01:56:52;101417.72;;;-1.10;100.00
51781;BME280;37844;57.126;24.288;2023-01-29T01:59:31;101430.94;;;-1.02;100.00
51781;BME280;37844;57.126;24.288;2023-01-29T02:01:58;101413.84;;;-1.04;100.00
51781;BME280;37844;57.126;24.288;2023-01-29T02:04:25;101364.41;;;-1.36;100.00
51781;BME280;37844;57.126;24.288;2023-01-29T02:07:12;101418.16;;;-1.15;100.00
51781;BME280;37844;57.126;24.288;2023-01-29T02:10:05;101413.00;;;-1.17;100.00
51781;BME280;37844;57.126;24.288;2023-01-29T02:12:33;101411.78;;;-1.10;100.00
51781;BME280;37844;57.126;24.288;2023-01-29T02:14:58;101403.31;;;-1.11;100.00
51781;BME280;37844;57.126;24.288;2023-01-29T02:17:24;101406.72;;;-1.10;100.00
51781;BME280;37844;57.126;24.288;2023-01-29T02:33:47;101395.38;;;-1.03;100.00
51781;BME280;37844;57.126;24.288;2023-01-29T02:39:13;101394.84;;;-0.99;100.00
51781;BME280;37844;57.126;24.288;2023-01-29T02:42:09;101393.03;;;-0.89;100.00
51781;BME280;37844;57.126;24.288;2023-01-29T02:44:48;101394.50;;;-0.92;100.00
51781;BME280;37844;57.126;24.288;2023-01-29T02:47:41;101395.47;;;-0.90;100.00
51781;BME280;37844;57.126;24.288;2023-01-29T02:50:37;101398.53;;;-0.82;100.00
51781;BME280;37844;57.126;24.288;2023-01-29T02:53:14;101402.69;;;-0.71;100.00
51781;BME280;37844;57.126;24.288;2023-01-29T02:55:48;101395.69;;;-0.87;100.00
51781;BME280;37844;57.126;24.288;2023-01-29T02:58:24;101397.44;;;-0.86;100.00
51781;BME280;37844;57.126;24.288;2023-01-29T03:00:58;101393.03;;;-0.89;100.00
51781;BME280;37844;57.126;24.288;2023-01-29T03:03:33;101392.69;;;-0.81;100.00
51781;BME280;37844;57.126;24.288;2023-01-29T03:06:08;101396.75;;;-0.83;100.00
51781;BME280;37844;57.126;24.288;2023-01-29T03:08:46;101388.16;;;-0.74;100.00
51781;BME280;37844;57.126;24.288;2023-01-29T03:11:16;101390.13;;;-0.70;100.00
51781;BME280;37844;57.126;24.288;2023-01-29T03:16:31;101369.00;;;-0.70;100.00
51781;BME280;37844;57.126;24.288;2023-01-29T03:19:08;101375.59;;;-0.72;100.00
51781;BME280;37844;57.126;24.288;2023-01-29T03:21:40;101364.59;;;-0.73;100.00
51781;BME280;37844;57.126;24.288;2023-01-29T03:27:32;101357.41;;;-0.67;100.00
51781;BME280;37844;57.126;24.288;2023-01-29T03:30:19;101348.75;;;-0.70;100.00
51781;BME280;37844;57.126;24.288;2023-01-29T03:33:07;101348.84;;;-0.69;100.00
51781;BME280;37844;57.126;24.288;2023-01-29T03:35:37;101353.13;;;-0.68;100.00
51781;BME280;37844;57.126;24.288;2023-01-29T03:38:06;101349.38;;;-0.61;100.00
51781;BME280;37844;57.126;24.288;2023-01-29T03:40:54;101348.50;;;-0.61;100.00
51781;BME280;37844;57.126;24.288;2023-01-29T03:46:17;101342.28;;;-0.53;100.00
51781;BME280;37844;57.126;24.288;2023-01-29T03:49:00;101348.44;;;-0.50;100.00
51781;BME280;37844;57.126;24.288;2023-01-29T03:54:18;101332.56;;;-0.47;100.00
51781;BME280;37844;57.126;24.288;2023-01-29T04:01:51;101334.97;;;-0.24;100.00
51781;BME280;37844;57.126;24.288;2023-01-29T04:04:39;101323.25;;;-0.22;100.00
51781;BME280;37844;57.126;24.288;2023-01-29T04:07:15;101303.28;;;-0.30;100.00
51781;BME280;37844;57.126;24.288;2023-01-29T04:09:50;101310.03;;;-0.31;100.00
51781;BME280;37844;57.126;24.288;2023-01-29T04:12:25;101303.69;;;-0.24;100.00
51781;BME280;37844;57.126;24.288;2023-01-29T04:14:53;101301.16;;;-0.24;100.00
51781;BME280;37844;57.126;24.288;2023-01-29T04:17:42;101300.66;;;-0.32;100.00
51781;BME280;37844;57.126;24.288;2023-01-29T04:20:09;101296.69;;;-0.15;100.00
51781;BME280;37844;57.126;24.288;2023-01-29T04:22:37;101283.13;;;-0.15;100.00
51781;BME280;37844;57.126;24.288;2023-01-29T04:25:11;101297.63;;;-0.26;100.00
51781;BME280;37844;57.126;24.288;2023-01-29T04:30:47;101301.19;;;-0.11;100.00
51781;BME280;37844;57.126;24.288;2023-01-29T04:36:16;101294.94;;;-0.03;100.00
51781;BME280;37844;57.126;24.288;2023-01-29T04:49:44;101278.38;;;-0.11;100.00
51781;BME280;37844;57.126;24.288;2023-01-29T04:52:23;101285.00;;;0.01;100.00
51781;BME280;37844;57.126;24.288;2023-01-29T04:55:03;101284.16;;;0.00;100.00
51781;BME280;37844;57.126;24.288;2023-01-29T05:00:32;101277.09;;;0.09;100.00
51781;BME280;37844;57.126;24.288;2023-01-29T05:03:00;101272.22;;;-0.01;100.00
51781;BME280;37844;57.126;24.288;2023-01-29T05:05:42;101266.88;;;-0.06;100.00
51781;BME280;37844;57.126;24.288;2023-01-29T05:08:11;101266.66;;;0.05;100.00
51781;BME280;37844;57.126;24.288;2023-01-29T05:10:38;101261.19;;;0.12;100.00
51781;BME280;37844;57.126;24.288;2023-01-29T05:13:05;101256.34;;;0.15;100.00
51781;BME280;37844;57.126;24.288;2023-01-29T05:15:36;101251.06;;;0.12;100.00
51781;BME280;37844;57.126;24.288;2023-01-29T05:18:03;101258.50;;;0.09;100.00
51781;BME280;37844;57.126;24.288;2023-01-29T05:20:32;101254.00;;;-0.09;100.00
51781;BME280;37844;57.126;24.288;2023-01-29T05:22:58;101247.06;;;0.02;100.00
51781;BME280;37844;57.126;24.288;2023-01-29T05:25:29;101256.16;;;-0.02;100.00
51781;BME280;37844;57.126;24.288;2023-01-29T05:27:55;101243.78;;;0.03;100.00
51781;BME280;37844;57.126;24.288;2023-01-29T05:30:56;101245.63;;;0.06;100.00
51781;BME280;37844;57.126;24.288;2023-01-29T05:33:27;101243.97;;;0.06;100.00
51781;BME280;37844;57.126;24.288;2023-01-29T05:35:54;101234.81;;;0.08;100.00
51781;BME280;37844;57.126;24.288;2023-01-29T05:38:21;101231.47;;;0.09;100.00
51781;BME280;37844;57.126;24.288;2023-01-29T05:40:47;101223.00;;;0.09;100.00
51781;BME280;37844;57.126;24.288;2023-01-29T05:43:15;101230.03;;;0.13;100.00
51781;BME280;37844;57.126;24.288;2023-01-29T05:45:41;101228.19;;;0.10;100.00
51781;BME280;37844;57.126;24.288;2023-01-29T05:48:07;101231.69;;;0.12;100.00
51781;BME280;37844;57.126;24.288;2023-01-29T05:50:32;101235.56;;;0.20;100.00
51781;BME280;37844;57.126;24.288;2023-01-29T05:52:59;101224.63;;;0.35;100.00
51781;BME280;37844;57.126;24.288;2023-01-29T05:55:26;101231.19;;;0.18;100.00
51781;BME280;37844;57.126;24.288;2023-01-29T05:57:51;101231.75;;;0.27;100.00
51781;BME280;37844;57.126;24.288;2023-01-29T06:00:17;101221.16;;;0.19;100.00
51781;BME280;37844;57.126;24.288;2023-01-29T06:02:43;101233.22;;;0.24;100.00
51781;BME280;37844;57.126;24.288;2023-01-29T06:05:09;101235.09;;;0.26;100.00
51781;BME280;37844;57.126;24.288;2023-01-29T06:07:35;101221.03;;;0.18;100.00
51781;BME280;37844;57.126;24.288;2023-01-29T06:10:01;101224.25;;;0.15;100.00
51781;BME280;37844;57.126;24.288;2023-01-29T06:12:27;101237.13;;;0.32;100.00
51781;BME280;37844;57.126;24.288;2023-01-29T06:14:52;101230.84;;;0.40;100.00
51781;BME280;37844;57.126;24.288;2023-01-29T06:17:18;101221.09;;;0.33;100.00
51781;BME280;37844;57.126;24.288;2023-01-29T06:19:43;101226.38;;;0.36;100.00
51781;BME280;37844;57.126;24.288;2023-01-29T06:22:09;101177.56;;;0.12;100.00
51781;BME280;37844;57.126;24.288;2023-01-29T06:24:35;101231.47;;;0.23;100.00
51781;BME280;37844;57.126;24.288;2023-01-29T06:27:01;101222.03;;;0.20;100.00
51781;BME280;37844;57.126;24.288;2023-01-29T06:29:27;101229.34;;;0.29;100.00
51781;BME280;37844;57.126;24.288;2023-01-29T06:31:52;101227.09;;;0.33;100.00
51781;BME280;37844;57.126;24.288;2023-01-29T06:34:17;101218.56;;;0.33;100.00
51781;BME280;37844;57.126;24.288;2023-01-29T06:36:43;101220.41;;;0.35;100.00
51781;BME280;37844;57.126;24.288;2023-01-29T06:39:08;101217.88;;;0.35;100.00
51781;BME280;37844;57.126;24.288;2023-01-29T06:41:34;101214.88;;;0.41;100.00
51781;BME280;37844;57.126;24.288;2023-01-29T06:43:59;101215.31;;;0.49;100.00
51781;BME280;37844;57.126;24.288;2023-01-29T06:46:25;101214.53;;;0.50;100.00
51781;BME280;37844;57.126;24.288;2023-01-29T06:48:51;101216.13;;;0.48;100.00
51781;BME280;37844;57.126;24.288;2023-01-29T06:51:16;101205.50;;;0.40;100.00
51781;BME280;37844;57.126;24.288;2023-01-29T06:53:44;101201.69;;;0.47;100.00
51781;BME280;37844;57.126;24.288;2023-01-29T06:56:10;101188.59;;;0.54;100.00
51781;BME280;37844;57.126;24.288;2023-01-29T06:58:36;101195.88;;;0.62;100.00
51781;BME280;37844;57.126;24.288;2023-01-29T07:01:07;101195.88;;;0.62;100.00
51781;BME280;37844;57.126;24.288;2023-01-29T07:03:32;101186.84;;;0.53;100.00
51781;BME280;37844;57.126;24.288;2023-01-29T07:05:58;101185.28;;;0.55;100.00
51781;BME280;37844;57.126;24.288;2023-01-29T07:08:23;101194.72;;;0.57;100.00
51781;BME280;37844;57.126;24.288;2023-01-29T07:10:49;101187.28;;;0.60;100.00
51781;BME280;37844;57.126;24.288;2023-01-29T07:13:15;101184.66;;;0.59;100.00
51781;BME280;37844;57.126;24.288;2023-01-29T07:15:40;101188.09;;;0.59;100.00
51781;BME280;37844;57.126;24.288;2023-01-29T07:18:07;101177.31;;;0.63;100.00
51781;BME280;37844;57.126;24.288;2023-01-29T07:20:41;101172.59;;;0.55;100.00
51781;BME280;37844;57.126;24.288;2023-01-29T07:23:09;101167.03;;;0.47;100.00
51781;BME280;37844;57.126;24.288;2023-01-29T07:25:36;101174.50;;;0.59;100.00
51781;BME280;37844;57.126;24.288;2023-01-29T07:28:02;101170.53;;;0.49;100.00
51781;BME280;37844;57.126;24.288;2023-01-29T07:30:28;101171.13;;;0.45;100.00
51781;BME280;37844;57.126;24.288;2023-01-29T07:32:54;101170.97;;;0.42;100.00
51781;BME280;37844;57.126;24.288;2023-01-29T07:35:19;101165.84;;;0.55;100.00
51781;BME280;37844;57.126;24.288;2023-01-29T07:37:48;101168.66;;;0.60;100.00
51781;BME280;37844;57.126;24.288;2023-01-29T07:40:14;101165.06;;;0.56;100.00
51781;BME280;37844;57.126;24.288;2023-01-29T07:42:40;101163.66;;;0.61;100.00
51781;BME280;37844;57.126;24.288;2023-01-29T07:45:08;101162.09;;;0.63;100.00
51781;BME280;37844;57.126;24.288;2023-01-29T07:47:34;101152.81;;;0.64;100.00
51781;BME280;37844;57.126;24.288;2023-01-29T07:50:00;101148.88;;;0.54;100.00
51781;BME280;37844;57.126;24.288;2023-01-29T07:52:28;101152.47;;;0.58;100.00
51781;BME280;37844;57.126;24.288;2023-01-29T07:54:54;101157.72;;;0.61;100.00
51781;BME280;37844;57.126;24.288;2023-01-29T07:57:19;101155.13;;;0.59;100.00
51781;BME280;37844;57.126;24.288;2023-01-29T07:59:45;101156.31;;;0.51;100.00
51781;BME280;37844;57.126;24.288;2023-01-29T08:02:11;101094.56;;;0.23;100.00
51781;BME280;37844;57.126;24.288;2023-01-29T08:04:36;101139.63;;;0.55;100.00
51781;BME280;37844;57.126;24.288;2023-01-29T08:07:02;101152.34;;;0.70;100.00
51781;BME280;37844;57.126;24.288;2023-01-29T08:09:29;101148.66;;;0.79;100.00
51781;BME280;37844;57.126;24.288;2023-01-29T08:11:55;101139.72;;;0.71;100.00
51781;BME280;37844;57.126;24.288;2023-01-29T08:14:21;101137.97;;;0.70;100.00
51781;BME280;37844;57.126;24.288;2023-01-29T08:16:47;101122.75;;;0.70;100.00
51781;BME280;37844;57.126;24.288;2023-01-29T08:19:13;101133.19;;;0.75;100.00
51781;BME280;37844;57.126;24.288;2023-01-29T08:21:38;101137.38;;;0.89;100.00
51781;BME280;37844;57.126;24.288;2023-01-29T08:24:04;101123.13;;;0.91;100.00
51781;BME280;37844;57.126;24.288;2023-01-29T08:26:30;101124.69;;;0.89;100.00
51781;BME280;37844;57.126;24.288;2023-01-29T08:28:55;101115.16;;;0.85;100.00
51781;BME280;37844;57.126;24.288;2023-01-29T08:31:21;101107.47;;;0.83;100.00
51781;BME280;37844;57.126;24.288;2023-01-29T08:33:46;101114.81;;;0.94;100.00
51781;BME280;37844;57.126;24.288;2023-01-29T08:36:12;101112.44;;;0.97;100.00
51781;BME280;37844;57.126;24.288;2023-01-29T08:38:38;101113.16;;;0.94;100.00
51781;BME280;37844;57.126;24.288;2023-01-29T08:41:03;101118.59;;;1.00;100.00
51781;BME280;37844;57.126;24.288;2023-01-29T08:43:29;101117.88;;;1.03;100.00
51781;BME280;37844;57.126;24.288;2023-01-29T08:45:55;101115.63;;;1.08;100.00
51781;BME280;37844;57.126;24.288;2023-01-29T08:48:20;101114.56;;;1.04;100.00
51781;BME280;37844;57.126;24.288;2023-01-29T08:50:45;101113.78;;;1.05;100.00
51781;BME280;37844;57.126;24.288;2023-01-29T08:53:11;101103.94;;;1.11;100.00
51781;BME280;37844;57.126;24.288;2023-01-29T08:55:38;101104.75;;;1.10;100.00
51781;BME280;37844;57.126;24.288;2023-01-29T08:58:05;101105.91;;;1.00;100.00
51781;BME280;37844;57.126;24.288;2023-01-29T09:00:32;101092.25;;;0.98;100.00
51781;BME280;37844;57.126;24.288;2023-01-29T09:02:58;101083.06;;;0.86;100.00
51781;BME280;37844;57.126;24.288;2023-01-29T09:05:26;101099.69;;;0.95;100.00
51781;BME280;37844;57.126;24.288;2023-01-29T09:07:52;101109.22;;;0.99;100.00
51781;BME280;37844;57.126;24.288;2023-01-29T09:10:18;101107.28;;;1.10;100.00
51781;BME280;37844;57.126;24.288;2023-01-29T09:12:43;101113.94;;;1.08;100.00
51781;BME280;37844;57.126;24.288;2023-01-29T09:15:09;101135.38;;;1.28;100.00
51781;BME280;37844;57.126;24.288;2023-01-29T09:17:35;101129.84;;;1.35;100.00
51781;BME280;37844;57.126;24.288;2023-01-29T09:20:00;101094.13;;;1.32;100.00
51781;BME280;37844;57.126;24.288;2023-01-29T09:22:26;101093.38;;;1.33;100.00
51781;BME280;37844;57.126;24.288;2023-01-29T09:24:51;101107.53;;;1.30;100.00
51781;BME280;37844;57.126;24.288;2023-01-29T09:27:16;101122.16;;;1.34;100.00
51781;BME280;37844;57.126;24.288;2023-01-29T09:29:42;101120.34;;;1.31;100.00
51781;BME280;37844;57.126;24.288;2023-01-29T09:32:07;101116.66;;;1.26;100.00
51781;BME280;37844;57.126;24.288;2023-01-29T09:34:33;101108.34;;;1.29;100.00
51781;BME280;37844;57.126;24.288;2023-01-29T09:36:59;101092.84;;;1.24;100.00
51781;BME280;37844;57.126;24.288;2023-01-29T09:39:24;101093.00;;;1.27;100.00
51781;BME280;37844;57.126;24.288;2023-01-29T09:47:29;101091.34;;;1.27;100.00
51781;BME280;37844;57.126;24.288;2023-01-29T09:50:00;101080.56;;;1.32;100.00
51781;BME280;37844;57.126;24.288;2023-01-29T09:52:30;101078.03;;;1.32;100.00
51781;BME280;37844;57.126;24.288;2023-01-29T09:55:25;101082.69;;;1.24;100.00
51781;BME280;37844;57.126;24.288;2023-01-29T09:58:02;101071.88;;;1.28;100.00
51781;BME280;37844;57.126;24.288;2023-01-29T10:17:39;101027.53;;;1.21;100.00
51781;BME280;37844;57.126;24.288;2023-01-29T10:26:01;101007.34;;;1.39;100.00
51781;BME280;37844;57.126;24.288;2023-01-29T10:28:41;100997.66;;;1.48;100.00
51781;BME280;37844;57.126;24.288;2023-01-29T10:31:21;100992.13;;;1.56;100.00
51781;BME280;37844;57.126;24.288;2023-01-29T10:36:49;100977.97;;;1.44;100.00
51781;BME280;37844;57.126;24.288;2023-01-29T10:39:18;100976.31;;;1.45;100.00
51781;BME280;37844;57.126;24.288;2023-01-29T10:47:07;100948.69;;;1.51;100.00
51781;BME280;37844;57.126;24.288;2023-01-29T10:52:38;100931.69;;;1.34;100.00
51781;BME280;37844;57.126;24.288;2023-01-29T10:57:51;100939.34;;;1.50;100.00
51781;BME280;37844;57.126;24.288;2023-01-29T11:00:26;100934.25;;;1.50;100.00
51781;BME280;37844;57.126;24.288;2023-01-29T11:02:52;100945.69;;;1.58;100.00
51781;BME280;37844;57.126;24.288;2023-01-29T11:05:29;100936.38;;;1.59;100.00
51781;BME280;37844;57.126;24.288;2023-01-29T11:08:18;100926.63;;;1.50;100.00
51781;BME280;37844;57.126;24.288;2023-01-29T11:11:05;100910.72;;;1.54;100.00
51781;BME280;37844;57.126;24.288;2023-01-29T11:13:41;100904.63;;;1.51;100.00
51781;BME280;37844;57.126;24.288;2023-01-29T11:16:08;100906.56;;;1.55;100.00
51781;BME280;37844;57.126;24.288;2023-01-29T11:18:56;100879.09;;;1.64;100.00
51781;BME280;37844;57.126;24.288;2023-01-29T11:21:23;100874.06;;;1.65;100.00
51781;BME280;37844;57.126;24.288;2023-01-29T11:23:50;100880.50;;;1.59;100.00
51781;BME280;37844;57.126;24.288;2023-01-29T11:26:33;100878.41;;;1.68;100.00
51781;BME280;37844;57.126;24.288;2023-01-29T11:28:59;100886.47;;;1.59;100.00
51781;BME280;37844;57.126;24.288;2023-01-29T11:31:28;100886.72;;;1.64;100.00
51781;BME280;37844;57.126;24.288;2023-01-29T11:34:17;100874.06;;;1.65;100.00
51781;BME280;37844;57.126;24.288;2023-01-29T11:36:43;100858.09;;;1.68;100.00
51781;BME280;37844;57.126;24.288;2023-01-29T11:41:49;100869.16;;;1.68;100.00
51781;BME280;37844;57.126;24.288;2023-01-29T11:46:57;100882.06;;;1.73;100.00
51781;BME280;37844;57.126;24.288;2023-01-29T11:49:33;100885.06;;;1.82;100.00
51781;BME280;37844;57.126;24.288;2023-01-29T11:52:02;100873.03;;;1.78;100.00
51781;BME280;37844;57.126;24.288;2023-01-29T11:54:52;100849.38;;;1.63;100.00
51781;BME280;37844;57.126;24.288;2023-01-29T11:57:28;100854.44;;;1.79;100.00
51781;BME280;37844;57.126;24.288;2023-01-29T11:59:58;100851.63;;;1.91;100.00
51781;BME280;37844;57.126;24.288;2023-01-29T12:02:37;100833.25;;;1.97;100.00
51781;BME280;37844;57.126;24.288;2023-01-29T12:05:16;100839.38;;;2.00;100.00
51781;BME280;37844;57.126;24.288;2023-01-29T12:07:44;100837.13;;;2.06;100.00
51781;BME280;37844;57.126;24.288;2023-01-29T12:13:09;100821.94;;;1.90;100.00
51781;BME280;37844;57.126;24.288;2023-01-29T12:15:46;100812.19;;;1.81;100.00
51781;BME280;37844;57.126;24.288;2023-01-29T12:20:55;100804.66;;;1.83;100.00
51781;BME280;37844;57.126;24.288;2023-01-29T12:26:10;100785.50;;;1.73;100.00
51781;BME280;37844;57.126;24.288;2023-01-29T12:34:40;100788.59;;;1.84;100.00
51781;BME280;37844;57.126;24.288;2023-01-29T12:37:16;100787.44;;;1.95;100.00
51781;BME280;37844;57.126;24.288;2023-01-29T12:39:43;100782.50;;;1.98;100.00
51781;BME280;37844;57.126;24.288;2023-01-29T12:42:22;100785.41;;;2.06;100.00
51781;BME280;37844;57.126;24.288;2023-01-29T12:44:53;100778.13;;;1.96;100.00
51781;BME280;37844;57.126;24.288;2023-01-29T12:47:29;100787.06;;;2.05;100.00
51781;BME280;37844;57.126;24.288;2023-01-29T12:49:59;100779.31;;;2.02;100.00
51781;BME280;37844;57.126;24.288;2023-01-29T12:52:38;100777.94;;;2.09;100.00
51781;BME280;37844;57.126;24.288;2023-01-29T12:55:19;100773.72;;;2.09;100.00
51781;BME280;37844;57.126;24.288;2023-01-29T12:58:01;100787.22;;;2.08;100.00
51781;BME280;37844;57.126;24.288;2023-01-29T13:00:31;100774.88;;;1.98;100.00
51781;BME280;37844;57.126;24.288;2023-01-29T13:03:00;100772.78;;;2.07;100.00
51781;BME280;37844;57.126;24.288;2023-01-29T13:05:33;100721.19;;;1.74;100.00
51781;BME280;37844;57.126;24.288;2023-01-29T13:08:06;100765.13;;;2.07;100.00
51781;BME280;37844;57.126;24.288;2023-01-29T13:10:39;100768.84;;;2.14;100.00
51781;BME280;37844;57.126;24.288;2023-01-29T13:16:36;100767.03;;;2.11;100.00
51781;BME280;37844;57.126;24.288;2023-01-29T13:19:05;100771.81;;;2.05;100.00
51781;BME280;37844;57.126;24.288;2023-01-29T13:21:40;100754.88;;;2.06;100.00
51781;BME280;37844;57.126;24.288;2023-01-29T13:24:14;100779.06;;;2.16;100.00
51781;BME280;37844;57.126;24.288;2023-01-29T13:26:44;100765.41;;;2.13;100.00
51781;BME280;37844;57.126;24.288;2023-01-29T13:29:36;100761.88;;;2.10;100.00
51781;BME280;37844;57.126;24.288;2023-01-29T13:32:03;100776.03;;;2.23;100.00
51781;BME280;37844;57.126;24.288;2023-01-29T13:34:35;100779.97;;;2.16;100.00
51781;BME280;37844;57.126;24.288;2023-01-29T13:37:10;100771.97;;;2.26;100.00
51781;BME280;37844;57.126;24.288;2023-01-29T13:39:39;100764.41;;;2.28;100.00
51781;BME280;37844;57.126;24.288;2023-01-29T13:42:22;100744.63;;;2.22;100.00
51781;BME280;37844;57.126;24.288;2023-01-29T13:44:51;100741.63;;;2.11;100.00
51781;BME280;37844;57.126;24.288;2023-01-29T13:47:26;100728.00;;;2.11;100.00
51781;BME280;37844;57.126;24.288;2023-01-29T13:50:03;100710.66;;;2.02;100.00
51781;BME280;37844;57.126;24.288;2023-01-29T13:52:39;100701.75;;;1.93;100.00
51781;BME280;37844;57.126;24.288;2023-01-29T14:10:30;100663.16;;;2.01;100.00
51781;BME280;37844;57.126;24.288;2023-01-29T14:18:14;100676.88;;;2.05;100.00
51781;BME280;37844;57.126;24.288;2023-01-29T14:23:23;100668.69;;;1.93;100.00
51781;BME280;37844;57.126;24.288;2023-01-29T14:26:32;100687.72;;;2.01;100.00
51781;BME280;37844;57.126;24.288;2023-01-29T14:34:19;100686.94;;;2.02;100.00
51781;BME280;37844;57.126;24.288;2023-01-29T14:36:47;100700.00;;;2.09;100.00
51781;BME280;37844;57.126;24.288;2023-01-29T14:39:37;100704.34;;;2.12;100.00
51781;BME280;37844;57.126;24.288;2023-01-29T14:42:32;100699.38;;;2.15;100.00
51781;BME280;37844;57.126;24.288;2023-01-29T14:45:07;100697.78;;;2.17;100.00
51781;BME280;37844;57.126;24.288;2023-01-29T14:52:51;100660.78;;;2.04;100.00
51781;BME280;37844;57.126;24.288;2023-01-29T14:57:51;100637.22;;;2.08;100.00
51781;BME280;37844;57.126;24.288;2023-01-29T15:00:40;100633.94;;;2.11;100.00
51781;BME280;37844;57.126;24.288;2023-01-29T15:03:38;100632.84;;;2.06;100.00
51781;BME280;37844;57.126;24.288;2023-01-29T15:06:05;100623.91;;;1.95;100.00
51781;BME280;37844;57.126;24.288;2023-01-29T15:08:43;100623.16;;;1.97;100.00
51781;BME280;37844;57.126;24.288;2023-01-29T15:11:29;100604.00;;;1.86;100.00
51781;BME280;37844;57.126;24.288;2023-01-29T15:17:01;100585.91;;;1.98;100.00
51781;BME280;37844;57.126;24.288;2023-01-29T15:19:34;100580.69;;;1.95;100.00
51781;BME280;37844;57.126;24.288;2023-01-29T15:22:04;100576.19;;;1.89;100.00
51781;BME280;37844;57.126;24.288;2023-01-29T15:24:30;100571.00;;;1.87;100.00
51781;BME280;37844;57.126;24.288;2023-01-29T15:26:55;100568.63;;;1.90;100.00
51781;BME280;37844;57.126;24.288;2023-01-29T15:29:24;100574.72;;;1.94;100.00
51781;BME280;37844;57.126;24.288;2023-01-29T15:31:50;100557.72;;;1.93;100.00
51781;BME280;37844;57.126;24.288;2023-01-29T15:34:16;100555.50;;;1.81;100.00
51781;BME280;37844;57.126;24.288;2023-01-29T15:36:42;100550.63;;;1.66;100.00